Time;durP1;ratioP1;P1;durP2;ratioP2;P2;SDS_P1;SDS_P2;PMS_P1;PMS_P2;Temp;Humidity;BMP_temperature;BMP_pressure;BME280_temperature;BME280_humidity;BME280_pressure;Samples;Min_cycle;Max_cycle;Signal;HPM_P1;HPM_P2
2023/05/02 00:02:30;;;;;;;17.70;8.02;;;;;;;12.24;88.29;101660.84;5076380;28;20070;-73
2023/05/02 00:05:18;;;;;;;14.95;7.22;;;;;;;12.23;87.48;101657.28;5056612;28;20063;-73
2023/05/02 00:08:06;;;;;;;17.25;7.40;;;;;;;12.34;87.20;101660.69;5068542;28;20045;-73
2023/05/02 00:10:54;;;;;;;15.93;8.60;;;;;;;12.02;88.32;101655.97;5047694;28;20064;-73
2023/05/02 00:13:42;;;;;;;16.27;7.63;;;;;;;11.78;90.49;101659.94;5074437;28;20060;-72
2023/05/02 00:16:30;;;;;;;13.32;6.95;;;;;;;11.84;91.58;101658.72;5075301;28;20059;-73
2023/05/02 00:19:18;;;;;;;19.52;7.13;;;;;;;12.31;90.80;101655.75;5074004;28;20049;-72
2023/05/02 00:22:05;;;;;;;14.57;7.85;;;;;;;12.11;90.19;101656.09;5075878;28;20063;-72
2023/05/02 00:24:57;;;;;;;15.57;7.90;;;;;;;12.04;90.65;101648.22;5074733;28;20051;-74
2023/05/02 00:27:45;;;;;;;15.82;8.57;;;;;;;11.97;90.57;101647.78;5054276;28;20049;-73
2023/05/02 00:30:33;;;;;;;13.55;8.02;;;;;;;12.21;90.20;101645.72;5059289;28;20483;-74
2023/05/02 00:33:21;;;;;;;15.95;9.18;;;;;;;12.08;89.30;101637.38;5073575;28;20059;-73
2023/05/02 00:36:15;;;;;;;17.73;8.60;;;;;;;12.02;90.04;101641.34;5073817;28;20052;-73
2023/05/02 00:39:04;;;;;;;16.20;9.20;;;;;;;12.05;90.56;101640.72;5060217;28;20048;-73
2023/05/02 00:41:58;;;;;;;20.25;9.70;;;;;;;12.27;89.81;101646.44;5074990;28;20049;-71
2023/05/02 00:44:46;;;;;;;19.88;9.30;;;;;;;12.12;89.49;101641.16;5090738;28;20052;-73
2023/05/02 00:47:33;;;;;;;15.50;9.23;;;;;;;11.83;90.78;101640.53;5074668;28;20049;-73
2023/05/02 00:50:21;;;;;;;20.48;9.02;;;;;;;11.81;91.77;101640.00;5074227;28;20060;-73
2023/05/02 00:53:09;;;;;;;18.48;9.13;;;;;;;11.66;92.96;101646.59;5075071;28;20044;-73
2023/05/02 00:55:58;;;;;;;18.35;8.77;;;;;;;12.42;95.04;101649.78;5074195;28;20064;-73
2023/05/02 00:58:46;;;;;;;17.08;9.25;;;;;;;12.16;90.57;101656.84;5074187;28;20048;-73
2023/05/02 01:02:09;;;;;;;16.77;9.75;;;;;;;12.32;90.93;101657.41;5059950;28;20048;-73
2023/05/02 01:05:27;;;;;;;18.90;8.85;;;;;;;12.27;90.28;101652.78;5047781;28;20503;-73
2023/05/02 01:08:56;;;;;;;16.42;9.05;;;;;;;12.14;91.11;101653.56;5054915;28;20083;-73
2023/05/02 01:12:12;;;;;;;17.08;9.27;;;;;;;12.01;91.75;101653.50;5041874;28;20071;-74
2023/05/02 01:15:05;;;;;;;19.70;9.95;;;;;;;12.29;89.85;101650.53;5057593;28;20057;-73
2023/05/02 01:17:55;;;;;;;22.35;9.85;;;;;;;12.38;92.88;101656.19;5054227;28;20464;-74
2023/05/02 01:20:43;;;;;;;22.55;10.80;;;;;;;12.14;91.88;101658.25;5039812;28;20037;-74
2023/05/02 01:23:46;;;;;;;20.48;10.35;;;;;;;12.72;94.29;101653.94;5039631;28;20060;-74
2023/05/02 01:26:39;;;;;;;24.20;10.77;;;;;;;12.21;91.04;101656.75;5052258;28;20056;-74
2023/05/02 01:29:28;;;;;;;23.35;10.45;;;;;;;12.16;91.65;101650.50;5073807;28;20060;-72
2023/05/02 01:32:20;;;;;;;23.65;11.02;;;;;;;12.32;91.07;101649.94;5037294;28;20065;-73
2023/05/02 01:35:08;;;;;;;22.27;11.00;;;;;;;12.37;90.52;101652.63;5040632;28;20044;-74
2023/05/02 01:37:56;;;;;;;28.95;10.88;;;;;;;12.13;91.85;101656.63;5025190;28;20531;-74
2023/05/02 01:40:45;;;;;;;20.08;10.52;;;;;;;12.39;94.08;101657.84;5059450;28;20049;-73
2023/05/02 01:43:34;;;;;;;24.13;11.00;;;;;;;12.08;91.48;101660.28;5041128;28;20045;-72
2023/05/02 01:46:22;;;;;;;21.23;11.35;;;;;;;12.16;92.20;101656.84;5065272;28;20044;-73
2023/05/02 01:49:10;;;;;;;22.10;10.90;;;;;;;12.64;93.04;101664.88;5048482;28;20377;-74
2023/05/02 01:52:02;;;;;;;23.13;11.15;;;;;;;12.74;93.42;101648.91;5061776;28;20055;-73
2023/05/02 01:54:51;;;;;;;21.70;11.15;;;;;;;12.39;89.69;101658.69;5055024;28;20053;-73
2023/05/02 01:57:40;;;;;;;19.27;11.90;;;;;;;12.12;91.41;101655.81;5042914;28;20075;-74
2023/05/02 02:00:28;;;;;;;29.38;12.43;;;;;;;11.72;93.69;101645.38;5043404;28;20041;-74
2023/05/02 02:03:16;;;;;;;20.95;11.73;;;;;;;12.33;94.60;101648.00;5045747;28;20056;-73
2023/05/02 02:06:05;;;;;;;22.67;11.52;;;;;;;11.94;92.16;101650.31;5065440;28;20772;-72
2023/05/02 02:08:53;;;;;;;27.10;11.75;;;;;;;12.58;93.57;101646.72;5059074;28;20053;-73
2023/05/02 02:12:02;;;;;;;21.58;12.48;;;;;;;11.99;91.43;101650.22;5043071;28;20053;-70
2023/05/02 02:14:56;;;;;;;23.63;12.48;;;;;;;12.40;92.38;101656.72;5048177;28;20052;-72
2023/05/02 02:18:12;;;;;;;22.85;12.93;;;;;;;12.14;92.96;101669.31;5046168;28;20052;-73
2023/05/02 02:21:00;;;;;;;28.17;12.70;;;;;;;11.98;92.65;101663.19;5046796;28;20072;-67
2023/05/02 02:23:50;;;;;;;24.20;13.85;;;;;;;11.90;93.14;101668.59;5068612;28;20053;-65
2023/05/02 02:26:38;;;;;;;20.80;13.25;;;;;;;11.92;94.78;101672.69;5055472;28;20458;-66
2023/05/02 02:29:28;;;;;;;26.77;14.45;;;;;;;11.81;93.98;101664.84;5048967;28;20507;-65
2023/05/02 02:32:15;;;;;;;24.85;14.50;;;;;;;11.63;95.05;101671.16;5057292;28;20079;-63
2023/05/02 02:35:04;;;;;;;28.77;14.45;;;;;;;11.61;96.76;101674.19;5045452;28;20053;-64
2023/05/02 02:38:02;;;;;;;23.45;14.05;;;;;;;11.99;96.21;101673.16;5039148;28;20057;-65
2023/05/02 02:41:12;;;;;;;30.73;14.77;;;;;;;12.35;96.39;101674.22;5031032;28;20044;-64
2023/05/02 02:44:04;;;;;;;;;;;;;;;12.48;92.22;101674.53;5064833;28;20047;-65
2023/05/02 02:47:04;;;;;;;28.15;13.93;;;;;;;12.56;91.62;101679.38;5078052;28;19920;-65
2023/05/02 02:50:14;;;;;;;25.50;13.15;;;;;;;12.56;91.71;101679.38;5044760;28;20053;-64
2023/05/02 02:53:04;;;;;;;26.27;14.38;;;;;;;12.33;92.00;101687.50;5043880;28;20048;-63
2023/05/02 02:55:52;;;;;;;;;;;;;;;11.89;91.17;101684.31;5072678;28;20051;-64
2023/05/02 02:59:09;;;;;;;26.25;14.60;;;;;;;11.85;92.67;101685.22;5058614;28;20298;-64
2023/05/02 03:02:08;;;;;;;28.25;15.40;;;;;;;11.33;96.78;101677.91;5069246;28;20056;-64
2023/05/02 03:04:56;;;;;;;27.73;15.02;;;;;;;11.70;96.35;101674.41;5064849;28;20454;-64
2023/05/02 03:07:44;;;;;;;29.13;15.35;;;;;;;11.77;94.44;101678.44;5072840;28;20053;-64
2023/05/02 03:10:32;;;;;;;24.05;14.68;;;;;;;11.96;95.68;101684.75;5057160;28;20488;-64
2023/05/02 03:13:20;;;;;;;23.50;14.52;;;;;;;11.90;94.16;101682.38;5059006;28;20056;-65
2023/05/02 03:16:36;;;;;;;28.00;14.85;;;;;;;11.65;94.45;101683.56;5062028;28;20048;-65
2023/05/02 03:19:26;;;;;;;32.00;15.68;;;;;;;11.64;95.37;101683.84;5040703;28;20072;-64
2023/05/02 03:22:15;;;;;;;27.45;15.00;;;;;;;11.70;95.55;101688.22;5068095;28;20057;-64
2023/05/02 03:25:02;;;;;;;29.77;15.40;;;;;;;11.63;95.09;101684.97;5056051;28;20064;-64
2023/05/02 03:27:50;;;;;;;28.90;16.00;;;;;;;11.68;96.21;101688.47;5075442;28;20114;-64
2023/05/02 03:30:39;;;;;;;29.27;16.45;;;;;;;11.65;95.26;101688.25;5059800;28;20048;-63
2023/05/02 03:33:28;;;;;;;28.10;16.40;;;;;;;11.75;95.49;101693.66;5047549;28;20071;-64
2023/05/02 03:36:15;;;;;;;30.17;15.90;;;;;;;11.33;95.98;101698.03;5054674;28;20044;-66
2023/05/02 03:39:03;;;;;;;36.72;16.80;;;;;;;11.58;97.68;101694.13;5061961;28;20075;-65
2023/05/02 03:41:51;;;;;;;30.52;16.60;;;;;;;11.88;98.25;101698.44;5039070;28;20071;-64
2023/05/02 03:44:42;;;;;;;25.40;16.33;;;;;;;11.63;95.25;101701.53;5065843;28;20054;-64
2023/05/02 03:47:29;;;;;;;28.05;15.93;;;;;;;11.42;95.84;101695.44;5078699;28;20083;-64
2023/05/02 03:50:17;;;;;;;36.08;16.30;;;;;;;11.79;95.77;101690.00;5075239;28;20152;-64
2023/05/02 03:53:08;;;;;;;26.70;15.60;;;;;;;12.35;96.85;101701.84;5035986;28;20061;-63
2023/05/02 03:56:07;;;;;;;31.77;17.42;;;;;;;11.62;94.52;101699.88;5036238;28;20057;-64
2023/05/02 03:59:05;;;;;;;30.10;17.23;;;;;;;11.70;95.16;101699.25;5061073;28;20045;-65
2023/05/02 04:01:52;;;;;;;27.35;17.23;;;;;;;11.91;97.70;101700.59;5046481;28;20055;-65
2023/05/02 04:04:46;;;;;;;34.33;17.63;;;;;;;11.37;95.95;101700.22;5061734;28;20052;-63
2023/05/02 04:07:37;;;;;;;32.13;18.30;;;;;;;11.81;97.23;101693.28;5060112;28;20052;-64
2023/05/02 04:10:26;;;;;;;33.60;17.63;;;;;;;11.38;96.03;101692.44;5053287;28;20049;-64
2023/05/02 04:13:17;;;;;;;36.40;18.80;;;;;;;11.09;97.96;101691.69;5054003;28;20056;-64
2023/05/02 04:16:08;;;;;;;35.20;18.75;;;;;;;11.28;99.20;101706.34;5053184;28;20059;-64
2023/05/02 04:18:58;;;;;;;41.00;18.83;;;;;;;10.91;99.64;101705.41;5061006;28;20045;-64
2023/05/02 04:21:46;;;;;;;36.03;19.02;;;;;;;10.66;100.00;101708.41;5046504;28;20052;-66
2023/05/02 04:24:34;;;;;;;36.97;17.73;;;;;;;11.00;100.00;101712.75;5054379;28;20053;-65
2023/05/02 04:27:22;;;;;;;34.50;18.25;;;;;;;11.82;100.00;101713.44;5041877;28;20060;-64
2023/05/02 04:30:10;;;;;;;31.90;18.08;;;;;;;11.48;97.33;101713.56;5059563;28;20060;-64
2023/05/02 04:32:59;;;;;;;33.60;18.33;;;;;;;11.79;99.79;101725.06;5055036;28;20049;-66
2023/05/02 04:35:51;;;;;;;32.90;16.75;;;;;;;11.95;96.50;101724.56;5047131;28;20067;-64
2023/05/02 04:38:41;;;;;;;30.65;18.15;;;;;;;11.55;96.00;101735.28;5053048;28;20068;-64
2023/05/02 04:41:29;;;;;;;32.22;18.35;;;;;;;11.12;96.62;101735.22;5031254;28;20049;-64
2023/05/02 04:44:22;;;;;;;27.05;17.20;;;;;;;11.66;99.39;101742.34;5076225;28;20070;-64
2023/05/02 04:47:10;;;;;;;32.55;17.23;;;;;;;11.20;97.71;101742.88;5063735;28;20064;-64
2023/05/02 04:49:58;;;;;;;35.60;18.40;;;;;;;11.21;97.02;101743.66;5043595;28;20452;-63
2023/05/02 04:52:46;;;;;;;33.17;17.98;;;;;;;11.25;98.45;101742.81;5069618;28;20052;-64
2023/05/02 04:55:34;;;;;;;34.60;18.88;;;;;;;11.21;97.96;101754.69;5052503;28;20057;-64
2023/05/02 04:58:22;;;;;;;39.92;19.67;;;;;;;11.13;98.63;101750.66;5045941;28;20056;-65
2023/05/02 05:01:16;;;;;;;41.78;20.17;;;;;;;10.97;99.04;101756.63;5058208;28;20049;-65
2023/05/02 05:04:06;;;;;;;46.22;20.48;;;;;;;11.25;100.00;101750.25;5059763;28;20075;-64
2023/05/02 05:06:54;;;;;;;44.40;22.38;;;;;;;10.87;100.00;101753.97;5060588;28;20060;-64
2023/05/02 05:09:44;;;;;;;;;;;;;;;10.62;100.00;101760.50;5046215;28;20056;-64
2023/05/02 05:12:32;;;;;;;46.55;22.17;;;;;;;10.23;100.00;101768.78;5057971;28;19927;-64
2023/05/02 05:15:21;;;;;;;36.17;21.15;;;;;;;10.88;100.00;101772.97;5059097;28;20056;-64
2023/05/02 05:18:13;;;;;;;44.08;21.50;;;;;;;10.59;100.00;101771.28;5066442;28;20053;-64
2023/05/02 05:21:01;;;;;;;47.13;22.20;;;;;;;10.56;100.00;101786.47;5059143;28;20041;-64
2023/05/02 05:23:49;;;;;;;44.35;23.58;;;;;;;10.22;100.00;101780.09;5059320;28;20194;-72
2023/05/02 05:26:43;;;;;;;41.17;22.27;;;;;;;10.00;100.00;101787.91;5052034;28;20055;-73
2023/05/02 05:29:31;;;;;;;45.90;24.35;;;;;;;9.92;100.00;101794.03;5056644;28;20055;-72
2023/05/02 05:32:20;;;;;;;49.33;24.45;;;;;;;10.09;100.00;101789.81;5056052;28;20068;-72
2023/05/02 05:35:09;;;;;;;47.08;22.08;;;;;;;10.84;100.00;101796.72;5049438;28;20061;-64
2023/05/02 05:37:57;;;;;;;42.97;22.92;;;;;;;10.53;100.00;101797.25;5038610;28;20061;-64
2023/05/02 05:40:48;;;;;;;44.17;23.50;;;;;;;11.11;100.00;101810.78;5058630;28;20055;-64
2023/05/02 05:43:36;;;;;;;;;;;;;;;12.13;100.00;101812.09;5067365;28;20052;-64
2023/05/02 05:46:25;;;;;;;39.03;19.73;;;;;;;12.43;98.73;101808.06;5027834;28;19979;-64
2023/05/02 05:49:17;;;;;;;40.63;21.15;;;;;;;11.55;94.96;101807.84;5063719;28;20393;-64
2023/05/02 05:52:07;;;;;;;51.47;24.42;;;;;;;11.12;98.79;101814.38;5058886;28;20049;-64
2023/05/02 05:54:55;;;;;;;49.03;24.38;;;;;;;11.13;100.00;101825.13;5064282;28;20494;-64
2023/05/02 05:57:44;;;;;;;46.23;24.57;;;;;;;11.08;100.00;101821.56;5065630;28;20056;-64
2023/05/02 06:00:36;;;;;;;49.10;24.23;;;;;;;10.84;100.00;101816.00;5051578;28;20809;-65
2023/05/02 06:03:24;;;;;;;51.63;25.10;;;;;;;11.09;100.00;101832.31;5046301;28;20068;-64
2023/05/02 06:06:12;;;;;;;44.80;22.95;;;;;;;11.99;100.00;101827.78;5060324;28;20044;-64
2023/05/02 06:08:59;;;;;;;41.13;24.33;;;;;;;12.32;98.95;101837.81;5068779;28;20053;-64
2023/05/02 06:11:48;;;;;;;40.72;23.55;;;;;;;11.89;94.76;101832.59;5028253;28;20052;-64
2023/05/02 06:14:35;;;;;;;40.45;23.00;;;;;;;12.34;98.53;101834.75;5039858;28;20065;-64
2023/05/02 06:17:23;;;;;;;45.85;24.40;;;;;;;11.50;97.08;101843.78;5045759;28;20045;-65
2023/05/02 06:20:11;;;;;;;44.70;25.02;;;;;;;11.92;98.62;101843.03;5072958;28;20056;-64
2023/05/02 06:22:58;;;;;;;47.88;25.73;;;;;;;11.52;96.85;101843.47;5048990;28;20619;-64
2023/05/02 06:25:46;;;;;;;47.97;26.40;;;;;;;11.42;99.19;101846.34;5070350;28;20063;-64
2023/05/02 06:28:33;;;;;;;55.90;27.60;;;;;;;11.22;99.28;101850.13;5069278;28;20048;-66
2023/05/02 06:31:21;;;;;;;49.35;26.10;;;;;;;11.15;99.38;101853.22;5057620;28;20053;-64
2023/05/02 06:34:09;;;;;;;42.72;26.17;;;;;;;11.46;100.00;101864.78;5071433;28;20459;-64
2023/05/02 06:36:56;;;;;;;50.17;25.10;;;;;;;11.24;100.00;101862.50;5072190;28;20505;-65
2023/05/02 06:39:44;;;;;;;49.83;26.45;;;;;;;11.40;100.00;101865.13;5053720;28;20057;-64
2023/05/02 06:42:32;;;;;;;50.97;25.02;;;;;;;12.59;99.54;101864.75;5062190;28;20049;-64
2023/05/02 06:45:19;;;;;;;44.58;25.70;;;;;;;12.64;96.94;101866.66;5067147;28;20052;-64
2023/05/02 06:48:07;;;;;;;46.90;26.80;;;;;;;11.80;93.76;101871.06;5072671;28;20057;-65
2023/05/02 06:50:55;;;;;;;46.63;27.08;;;;;;;11.76;98.03;101875.53;5061164;28;20044;-65
2023/05/02 06:53:42;;;;;;;53.25;26.20;;;;;;;11.84;97.05;101865.75;5065342;28;20061;-66
2023/05/02 06:56:30;;;;;;;43.95;26.52;;;;;;;12.64;98.26;101866.66;5071777;28;20049;-67
2023/05/02 06:59:18;;;;;;;46.17;25.40;;;;;;;13.09;91.31;101869.53;5068272;28;20056;-62
2023/05/02 07:02:05;;;;;;;44.50;24.88;;;;;;;13.88;90.74;101873.88;5037529;28;20725;-62
2023/05/02 07:04:53;;;;;;;49.95;26.48;;;;;;;13.16;86.58;101874.69;5068182;28;20512;-61
2023/05/02 07:07:41;;;;;;;46.72;25.90;;;;;;;13.42;89.91;101881.41;5030840;28;20052;-62
2023/05/02 07:10:29;;;;;;;46.42;26.02;;;;;;;12.48;92.48;101875.13;5066908;28;20049;-61
2023/05/02 07:13:17;;;;;;;38.72;22.58;;;;;;;12.96;93.32;101877.75;5065495;28;20052;-62
2023/05/02 07:16:05;;;;;;;48.78;25.05;;;;;;;13.23;91.98;101872.34;5064265;28;20052;-61
2023/05/02 07:18:52;;;;;;;40.85;24.15;;;;;;;13.54;89.81;101881.75;5055406;28;20053;-62
2023/05/02 07:21:40;;;;;;;46.63;27.67;;;;;;;12.29;91.00;101870.75;5061302;28;20045;-63
2023/05/02 07:24:28;;;;;;;45.63;27.08;;;;;;;13.19;92.80;101863.84;5093766;28;20860;-60
2023/05/02 07:27:15;;;;;;;48.25;27.48;;;;;;;13.74;91.60;101866.72;5083907;28;20048;-61
2023/05/02 07:30:06;;;;;;;43.78;26.95;;;;;;;13.71;86.12;101859.81;5095798;28;20055;-62
2023/05/02 07:32:53;;;;;;;50.92;27.65;;;;;;;13.19;87.15;101871.31;5090013;28;20055;-63
2023/05/02 07:35:41;;;;;;;40.70;26.17;;;;;;;13.63;88.14;101874.38;5093346;28;20048;-63
2023/05/02 07:38:29;;;;;;;39.15;24.58;;;;;;;13.89;86.95;101878.31;5064106;28;20044;-64
2023/05/02 07:41:16;;;;;;;45.05;26.80;;;;;;;14.26;84.68;101869.78;5095725;28;20134;-61
2023/05/02 07:44:04;;;;;;;44.45;24.88;;;;;;;14.47;80.66;101872.94;5074527;28;20055;-61
2023/05/02 07:46:52;;;;;;;43.28;25.95;;;;;;;13.71;83.93;101893.06;5088886;28;20839;-61
2023/05/02 07:49:39;;;;;;;42.67;26.95;;;;;;;13.73;84.04;101885.25;5091741;28;20048;-62
2023/05/02 07:52:27;;;;;;;45.45;27.95;;;;;;;13.25;84.83;101889.47;5086197;28;20468;-61
2023/05/02 07:55:15;;;;;;;41.60;25.00;;;;;;;14.18;84.95;101881.56;5085869;28;20052;-62
2023/05/02 07:58:02;;;;;;;46.00;26.08;;;;;;;14.82;81.80;101877.66;5084960;28;20074;-63
2023/05/02 08:00:50;;;;;;;38.58;23.02;;;;;;;15.08;79.46;101877.88;5089099;28;20412;-62
2023/05/02 08:03:38;;;;;;;42.30;26.13;;;;;;;14.84;78.18;101880.94;5088863;28;20052;-61
2023/05/02 08:06:25;;;;;;;49.00;27.25;;;;;;;14.74;77.16;101888.69;5093310;28;20056;-62
2023/05/02 08:09:13;;;;;;;41.42;26.13;;;;;;;14.99;77.11;101886.13;5081168;28;20052;-62
2023/05/02 08:12:04;;;;;;;41.03;24.65;;;;;;;15.47;76.50;101880.75;5086562;28;20142;-61
2023/05/02 08:14:52;;;;;;;45.63;26.70;;;;;;;14.70;77.48;101894.03;5083377;28;20044;-62
2023/05/02 08:17:39;;;;;;;41.75;26.00;;;;;;;14.58;79.50;101899.28;5090759;28;20060;-61
2023/05/02 08:20:27;;;;;;;43.28;26.42;;;;;;;14.42;79.34;101898.81;5085644;28;20575;-65
2023/05/02 08:23:15;;;;;;;43.42;26.35;;;;;;;14.08;80.42;101908.66;5082357;28;20048;-64
2023/05/02 08:26:03;;;;;;;44.33;26.73;;;;;;;14.22;80.30;101903.94;5068555;28;20577;-61
2023/05/02 08:28:53;;;;;;;45.87;26.17;;;;;;;14.37;80.97;101900.88;5089963;28;20044;-61
2023/05/02 08:31:41;;;;;;;49.65;25.63;;;;;;;14.16;80.45;101908.78;5088286;28;20044;-61
2023/05/02 08:34:29;;;;;;;49.70;26.92;;;;;;;13.61;81.91;101909.03;5060024;28;20058;-61
2023/05/02 08:37:17;;;;;;;44.33;25.45;;;;;;;13.53;83.86;101908.59;5081743;28;20060;-60
2023/05/02 08:40:05;;;;;;;42.30;24.88;;;;;;;13.94;83.12;101910.59;5086197;28;20060;-61
2023/05/02 08:42:53;;;;;;;38.80;24.42;;;;;;;14.49;79.85;101904.75;5075462;28;20048;-61
2023/05/02 08:45:42;;;;;;;38.92;22.90;;;;;;;14.68;79.63;101910.16;5085882;28;20052;-61
2023/05/02 08:48:30;;;;;;;40.53;21.67;;;;;;;14.84;76.28;101911.44;5089240;28;20052;-61
2023/05/02 08:51:18;;;;;;;39.78;22.08;;;;;;;14.33;76.44;101913.72;5073123;28;20056;-65
2023/05/02 08:54:15;;;;;;;32.30;19.50;;;;;;;14.70;76.55;101909.88;5057202;28;20061;-65
2023/05/02 08:57:04;;;;;;;36.10;18.67;;;;;;;14.97;74.67;101913.38;5087464;28;20047;-65
2023/05/02 08:59:52;;;;;;;19.65;10.88;;;;;;;14.75;72.20;101921.63;5090671;28;20063;-66
2023/05/02 09:02:58;;;;;;;19.95;11.38;;;;;;;14.58;72.74;101914.00;5090927;28;20407;-65
2023/05/02 09:05:56;;;;;;;19.75;10.60;;;;;;;14.85;71.56;101912.28;5091342;28;20051;-65
2023/05/02 09:08:47;;;;;;;22.20;11.80;;;;;;;14.97;70.56;101918.94;5064625;28;20048;-67
2023/05/02 09:11:35;;;;;;;26.73;13.85;;;;;;;14.68;72.29;101922.06;5086545;28;20048;-65
2023/05/02 09:14:23;;;;;;;25.38;13.23;;;;;;;14.78;72.32;101914.66;5075907;28;20059;-66
2023/05/02 09:17:11;;;;;;;23.38;12.88;;;;;;;14.99;71.67;101926.94;5076829;28;20055;-66
2023/05/02 09:20:00;;;;;;;28.25;14.82;;;;;;;14.82;71.64;101930.34;5090957;28;20063;-66
2023/05/02 09:22:49;;;;;;;29.25;15.52;;;;;;;14.61;72.93;101940.25;5074927;28;20051;-67
2023/05/02 09:25:37;;;;;;;29.95;16.35;;;;;;;14.86;73.22;101948.03;5056379;28;20056;-67
2023/05/02 09:28:38;;;;;;;30.17;17.88;;;;;;;14.59;74.81;101948.09;5070478;28;20610;-69
2023/05/02 09:31:33;;;;;;;30.38;18.88;;;;;;;14.36;76.24;101963.00;5070262;28;20740;-66
2023/05/02 09:35:03;;;;;;;26.42;17.67;;;;;;;14.70;76.63;101957.81;5064766;28;20048;-66
2023/05/02 09:37:52;;;;;;;36.47;20.73;;;;;;;14.60;75.99;101967.19;5075120;28;20055;-68
2023/05/02 09:40:52;;;;;;;37.00;22.00;;;;;;;14.33;77.50;101966.41;5067445;28;20817;-67
2023/05/02 09:43:40;;;;;;;35.30;23.73;;;;;;;14.33;77.60;101969.97;5067842;28;20525;-66
2023/05/02 09:46:39;;;;;;;35.05;24.05;;;;;;;14.48;77.68;101971.63;5068476;28;20052;-67
2023/05/02 09:49:41;;;;;;;37.95;26.30;;;;;;;14.54;76.71;101964.81;5068695;28;20503;-67
2023/05/02 09:52:29;;;;;;;39.08;26.38;;;;;;;14.34;78.09;101960.53;5069127;28;20048;-66
2023/05/02 09:55:21;;;;;;;47.42;27.65;;;;;;;14.73;76.63;101962.75;5071389;28;20051;-68
2023/05/02 09:58:22;;;;;;;45.58;26.42;;;;;;;14.68;77.31;101962.03;5069028;28;20416;-66
2023/05/02 10:01:14;;;;;;;51.25;27.33;;;;;;;14.86;75.67;101970.22;5064984;28;20052;-67
2023/05/02 10:04:03;;;;;;;49.90;28.45;;;;;;;14.82;75.97;101962.84;5069821;28;20044;-65
2023/05/02 10:06:52;;;;;;;42.92;26.67;;;;;;;15.10;75.66;101967.19;5070439;28;20052;-64
2023/05/02 10:09:44;;;;;;;42.85;26.83;;;;;;;15.05;74.44;101961.72;5066188;28;20055;-62
2023/05/02 10:12:32;;;;;;;34.15;23.98;;;;;;;15.11;74.99;101957.72;5063144;28;20044;-64
2023/05/02 10:15:21;;;;;;;34.72;21.08;;;;;;;15.57;71.96;101961.84;5067646;28;20420;-64
2023/05/02 10:18:14;;;;;;;36.50;18.60;;;;;;;15.79;71.17;101956.25;5066358;28;20044;-63
2023/05/02 10:21:07;;;;;;;30.67;19.27;;;;;;;15.72;69.97;101961.47;5071933;28;20052;-65
2023/05/02 10:23:55;;;;;;;27.65;18.75;;;;;;;15.77;70.33;101955.78;5052821;28;20049;-65
2023/05/02 10:26:43;;;;;;;20.27;12.23;;;;;;;15.95;68.71;101956.72;5048632;28;20060;-64
2023/05/02 10:29:31;;;;;;;17.45;11.57;;;;;;;16.11;68.20;101957.91;5054314;28;20427;-64
2023/05/02 10:32:20;;;;;;;17.90;12.55;;;;;;;15.60;68.37;101949.31;5050817;28;20052;-61
2023/05/02 10:35:08;;;;;;;32.00;15.88;;;;;;;15.61;69.78;101948.16;5057644;28;20416;-63
2023/05/02 10:37:58;;;;;;;28.13;14.63;;;;;;;15.79;69.96;101949.91;5050648;28;20527;-62
2023/05/02 10:40:54;;;;;;;40.07;15.77;;;;;;;15.60;69.97;101963.19;5067530;28;20044;-63
2023/05/02 10:43:46;;;;;;;24.98;14.77;;;;;;;15.70;69.57;101962.94;5042335;28;20047;-65
2023/05/02 10:46:34;;;;;;;31.65;17.85;;;;;;;15.76;69.23;101965.25;5060020;28;20061;-62
2023/05/02 10:49:26;;;;;;;38.90;17.65;;;;;;;15.89;69.30;101960.75;5043004;28;20060;-62
2023/05/02 10:52:32;;;;;;;26.85;12.30;;;;;;;16.23;68.24;101957.31;5060985;28;20049;-64
2023/05/02 10:55:21;;;;;;;22.25;12.75;;;;;;;16.29;67.84;101961.56;5056549;28;20049;-63
2023/05/02 10:58:08;;;;;;;27.52;15.68;;;;;;;16.07;68.41;101962.47;5039399;28;20673;-61
2023/05/02 11:01:25;;;;;;;22.35;15.40;;;;;;;15.76;69.62;101958.84;5054002;28;20056;-62
2023/05/02 11:04:13;;;;;;;20.50;13.35;;;;;;;15.74;69.92;101958.38;5054353;28;20052;-63
2023/05/02 11:07:01;;;;;;;23.33;13.32;;;;;;;15.86;69.40;101963.34;5053089;28;20060;-62
2023/05/02 11:09:48;;;;;;;19.58;13.18;;;;;;;15.77;69.49;101957.75;5055723;28;20504;-63
2023/05/02 11:12:47;;;;;;;24.27;15.27;;;;;;;15.94;69.29;101965.34;5051288;28;20051;-63
2023/05/02 11:15:41;;;;;;;21.13;13.20;;;;;;;15.78;69.63;101959.38;5065843;28;20053;-63
2023/05/02 11:18:58;;;;;;;22.92;14.23;;;;;;;15.74;69.58;101944.50;5054646;28;20044;-64
2023/05/02 11:21:45;;;;;;;21.15;13.90;;;;;;;15.87;70.05;101951.06;5030317;28;20654;-64
2023/05/02 11:24:40;;;;;;;21.30;14.73;;;;;;;15.65;70.05;101954.72;5068336;28;20071;-63
2023/05/02 11:27:32;;;;;;;17.73;13.27;;;;;;;15.58;70.21;101946.03;5050929;28;20606;-62
2023/05/02 11:30:36;;;;;;;19.50;13.98;;;;;;;15.92;70.69;101960.09;5066539;28;20711;-63
2023/05/02 11:33:24;;;;;;;23.00;13.18;;;;;;;15.91;69.18;101954.88;5070208;28;20048;-63
2023/05/02 11:36:12;;;;;;;20.25;14.10;;;;;;;15.37;70.76;101955.97;5071218;28;20057;-64
2023/05/02 11:39:01;;;;;;;18.77;12.85;;;;;;;15.93;69.55;101963.72;5052447;28;20475;-65
2023/05/02 11:41:49;;;;;;;18.25;12.50;;;;;;;16.04;67.71;101956.75;5059894;28;20695;-66
2023/05/02 11:45:09;;;;;;;16.20;12.45;;;;;;;16.00;67.87;101958.50;5061644;28;20056;-64
2023/05/02 11:47:57;;;;;;;16.95;12.90;;;;;;;15.88;68.05;101961.91;5027644;28;20071;-62
2023/05/02 11:50:46;;;;;;;18.17;12.27;;;;;;;16.04;67.36;101956.75;5061943;28;20076;-62
2023/05/02 11:53:39;;;;;;;20.35;12.73;;;;;;;16.16;67.29;101965.28;5064196;28;20060;-61
2023/05/02 11:56:27;;;;;;;18.92;13.65;;;;;;;16.13;67.79;101949.25;5053823;28;20048;-61
2023/05/02 11:59:14;;;;;;;22.10;14.48;;;;;;;16.32;67.63;101958.97;5039607;28;20060;-60
2023/05/02 12:02:02;;;;;;;25.80;12.60;;;;;;;16.40;66.80;101962.94;5064875;28;20052;-61
2023/05/02 12:04:50;;;;;;;23.13;11.82;;;;;;;16.59;66.52;101960.72;5068775;28;20507;-61
2023/05/02 12:07:41;;;;;;;17.25;9.95;;;;;;;16.63;63.99;101965.31;5068389;28;20060;-62
2023/05/02 12:10:36;;;;;;;16.38;10.93;;;;;;;16.79;63.90;101963.72;5057125;28;20053;-60
2023/05/02 12:13:25;;;;;;;14.48;10.30;;;;;;;17.03;63.93;101957.69;5068848;28;20051;-61
2023/05/02 12:16:13;;;;;;;17.25;10.38;;;;;;;17.35;62.66;101968.31;5070964;28;20040;-61
2023/05/02 12:19:01;;;;;;;20.33;11.48;;;;;;;17.56;61.90;101968.50;5068999;28;20116;-61
2023/05/02 12:21:49;;;;;;;17.85;9.85;;;;;;;17.56;61.13;101966.53;5058334;28;20041;-61
2023/05/02 12:24:37;;;;;;;17.20;10.98;;;;;;;17.47;61.75;101973.28;5053301;28;20055;-61
2023/05/02 12:27:26;;;;;;;16.30;10.85;;;;;;;17.38;62.05;101980.78;5044987;28;20106;-60
2023/05/02 12:30:24;;;;;;;18.17;10.48;;;;;;;16.99;62.95;101984.53;5064917;28;20053;-61
2023/05/02 12:33:12;;;;;;;17.10;10.45;;;;;;;16.61;63.85;101983.47;5050065;28;20049;-61
2023/05/02 12:36:05;;;;;;;23.48;11.02;;;;;;;16.77;62.76;101985.47;5052126;28;20061;-62
2023/05/02 12:38:56;;;;;;;37.78;13.07;;;;;;;16.78;63.82;101994.66;5070986;28;20044;-62
2023/05/02 12:41:44;;;;;;;;;;;;;;;16.91;63.74;102001.22;5058795;28;20052;-61
2023/05/02 12:44:37;;;;;;;16.38;10.25;;;;;;;16.77;64.37;101993.81;5069485;28;19920;-61
2023/05/02 12:47:25;;;;;;;16.60;10.55;;;;;;;16.68;64.56;102012.44;5070949;28;20056;-66
2023/05/02 12:50:13;;;;;;;20.90;11.05;;;;;;;16.50;63.98;102005.22;5046427;28;20044;-65
2023/05/02 12:53:02;;;;;;;14.80;10.55;;;;;;;16.42;64.40;102011.50;5056026;28;20053;-66
2023/05/02 12:56:01;;;;;;;16.90;11.23;;;;;;;16.39;63.90;102008.56;5053567;28;20056;-65
2023/05/02 12:58:49;;;;;;;18.38;9.93;;;;;;;16.43;64.49;102004.81;5071348;28;20060;-65
2023/05/02 13:01:37;;;;;;;19.70;10.38;;;;;;;16.56;62.82;102011.44;5071203;28;20048;-65